createdAt,value
2022-10-05T00:01:48.534Z,13.13
2022-10-05T00:04:21.537Z,10.65
2022-10-05T00:07:09.997Z,9.65
2022-10-05T00:09:36.726Z,12.98
2022-10-05T00:12:18.316Z,13.80
2022-10-05T00:14:47.105Z,17.55
2022-10-05T00:17:22.341Z,11.88
2022-10-05T00:19:52.445Z,13.45
2022-10-05T00:22:31.033Z,9.75
2022-10-05T00:25:03.296Z,9.00
2022-10-05T00:27:36.814Z,9.73
2022-10-05T00:30:14.490Z,9.27
2022-10-05T00:32:41.189Z,11.40
2022-10-05T00:35:08.743Z,14.75
2022-10-05T00:37:35.722Z,9.57
2022-10-05T00:40:03.331Z,10.30
2022-10-05T00:42:55.282Z,11.20
2022-10-05T00:45:31.948Z,9.75
2022-10-05T00:48:01.481Z,8.35
2022-10-05T00:50:41.081Z,8.32
2022-10-05T00:53:15.833Z,7.10
2022-10-05T00:56:03.360Z,11.88
2022-10-05T00:58:48.735Z,11.50
2022-10-05T01:01:17.923Z,11.07
2022-10-05T01:03:52.475Z,9.43
2022-10-05T01:06:24.967Z,7.65
2022-10-05T01:08:58.262Z,12.02
2022-10-05T01:11:41.559Z,15.95
2022-10-05T01:14:14.566Z,13.02
2022-10-05T01:16:59.377Z,11.27
2022-10-05T01:19:57.774Z,9.35
2022-10-05T01:22:42.021Z,11.30
2022-10-05T01:25:38.050Z,11.20
2022-10-05T01:28:14.207Z,8.70
2022-10-05T01:30:51.448Z,14.30
2022-10-05T01:33:55.488Z,14.35
2022-10-05T01:36:28.946Z,16.45
2022-10-05T01:39:01.314Z,12.52
2022-10-05T01:41:41.145Z,14.52
2022-10-05T01:44:14.156Z,13.85
2022-10-05T01:46:48.037Z,10.80
2022-10-05T01:49:38.790Z,9.95
2022-10-05T01:52:05.406Z,14.43
2022-10-05T01:54:59.642Z,15.35
2022-10-05T01:57:40.745Z,14.52
2022-10-05T02:00:10.865Z,15.38
2022-10-05T02:03:21.266Z,14.75
2022-10-05T02:05:58.679Z,20.80
2022-10-05T02:08:36.928Z,14.70
2022-10-05T02:11:07.817Z,14.13
2022-10-05T02:13:46.657Z,11.57
2022-10-05T02:16:38.085Z,15.13
2022-10-05T02:19:33.250Z,15.93
2022-10-05T02:22:06.617Z,17.08
2022-10-05T02:24:39.511Z,19.20
2022-10-05T02:27:08.521Z,15.25
2022-10-05T02:29:39.829Z,15.98
2022-10-05T02:32:22.646Z,14.60
2022-10-05T02:34:49.997Z,15.63
2022-10-05T02:37:44.002Z,14.38
2022-10-05T02:40:32.308Z,17.70
2022-10-05T02:43:11.554Z,17.23
2022-10-05T02:45:41.077Z,15.07
2022-10-05T02:48:16.347Z,20.58
2022-10-05T02:51:01.808Z,17.35
2022-10-05T02:53:40.536Z,11.75
2022-10-05T02:56:25.705Z,16.25
2022-10-05T02:59:36.146Z,18.02
2022-10-05T03:02:23.557Z,17.35
2022-10-05T03:05:12.042Z,14.15
2022-10-05T03:07:49.729Z,19.98
2022-10-05T03:10:25.316Z,12.57
2022-10-05T03:13:23.196Z,13.55
2022-10-05T03:16:22.532Z,15.20
2022-10-05T03:18:55.051Z,14.20
2022-10-05T03:21:43.249Z,18.90
2022-10-05T03:25:01.006Z,22.33
2022-10-05T03:27:44.814Z,18.67
2022-10-05T03:30:23.849Z,17.15
2022-10-05T03:33:22.329Z,13.75
2022-10-05T03:36:01.254Z,17.75
2022-10-05T03:38:49.343Z,11.48
2022-10-05T03:41:31.790Z,15.05
2022-10-05T03:46:47.541Z,28.45
2022-10-05T03:49:23.994Z,17.60
2022-10-05T03:52:02.465Z,19.98
2022-10-05T03:54:49.235Z,24.58
2022-10-05T03:57:25.458Z,16.80
2022-10-05T04:00:01.036Z,14.27
2022-10-05T04:02:43.408Z,20.25
2022-10-05T04:07:44.479Z,16.73
2022-10-05T04:10:17.697Z,29.90
2022-10-05T04:12:51.237Z,20.35
2022-10-05T04:15:42.653Z,15.43
2022-10-05T04:18:26.817Z,23.13
2022-10-05T04:21:00.398Z,23.70
2022-10-05T04:23:32.961Z,17.33
2022-10-05T04:26:09.597Z,17.98
2022-10-05T04:28:56.381Z,18.98
2022-10-05T04:31:54.781Z,19.73
2022-10-05T04:34:54.005Z,24.67
2022-10-05T04:37:26.873Z,19.00
2022-10-05T04:40:15.551Z,21.13
2022-10-05T04:43:24.569Z,16.58
2022-10-05T04:45:57.147Z,25.58
2022-10-05T04:49:04.491Z,39.67
2022-10-05T04:51:31.218Z,44.08
2022-10-05T04:54:11.540Z,41.88
2022-10-05T04:56:59.052Z,38.60
2022-10-05T04:59:29.041Z,32.30
2022-10-05T05:02:11.869Z,38.05
2022-10-05T05:05:00.182Z,41.55
2022-10-05T05:07:29.736Z,31.20
2022-10-05T05:10:15.131Z,29.65
2022-10-05T05:12:44.695Z,37.55
2022-10-05T05:15:34.111Z,39.10
2022-10-05T05:18:19.751Z,36.70
2022-10-05T05:21:16.254Z,27.40
2022-10-05T05:23:52.186Z,19.77
2022-10-05T05:26:40.086Z,29.63
2022-10-05T05:29:40.234Z,24.00
2022-10-05T05:32:40.483Z,28.98
2022-10-05T05:35:22.738Z,16.27
2022-10-05T05:38:15.790Z,19.73
2022-10-05T05:41:09.997Z,27.02
2022-10-05T05:43:55.288Z,28.05
2022-10-05T05:47:02.355Z,24.55
2022-10-05T05:49:32.880Z,24.33
2022-10-05T05:52:14.109Z,27.67
2022-10-05T05:54:56.771Z,25.75
2022-10-05T05:57:37.622Z,25.80
2022-10-05T06:00:17.119Z,27.63
2022-10-05T06:03:02.365Z,26.48
2022-10-05T06:05:39.025Z,22.55
2022-10-05T06:08:34.174Z,18.05
2022-10-05T06:11:15.830Z,35.95
2022-10-05T06:13:43.731Z,27.38
2022-10-05T06:16:15.032Z,27.20
2022-10-05T06:18:48.814Z,23.90
2022-10-05T06:21:29.972Z,27.13
2022-10-05T06:24:05.953Z,17.83
2022-10-05T06:26:39.595Z,14.00
2022-10-05T06:29:15.371Z,18.83
2022-10-05T06:32:13.013Z,17.73
2022-10-05T06:34:54.763Z,28.83
2022-10-05T06:37:40.069Z,28.05
2022-10-05T06:40:21.453Z,19.02
2022-10-05T06:43:30.052Z,15.85
2022-10-05T06:46:12.999Z,14.45
2022-10-05T06:48:57.569Z,32.80
2022-10-05T06:51:35.675Z,25.10
2022-10-05T06:54:16.835Z,15.40
2022-10-05T06:57:00.082Z,20.60
2022-10-05T06:59:35.633Z,19.85
2022-10-05T07:02:13.823Z,18.70
2022-10-05T07:04:46.450Z,25.63
2022-10-05T07:07:28.473Z,25.40
2022-10-05T07:10:01.196Z,22.95
2022-10-05T07:12:58.387Z,18.48
2022-10-05T07:15:47.393Z,19.70
2022-10-05T07:18:39.702Z,15.45
2022-10-05T07:24:21.685Z,14.80
2022-10-05T07:27:22.864Z,17.17
2022-10-05T07:29:54.345Z,14.15
2022-10-05T07:32:56.233Z,13.55
2022-10-05T07:35:47.268Z,8.00
2022-10-05T07:38:43.101Z,10.52
2022-10-05T07:41:14.960Z,6.22
2022-10-05T07:44:02.835Z,11.52
2022-10-05T07:46:54.791Z,7.90
2022-10-05T07:49:50.188Z,7.97
2022-10-05T07:52:39.037Z,11.13
2022-10-05T07:55:26.931Z,5.35
2022-10-05T07:58:17.040Z,14.60
2022-10-05T08:01:08.901Z,7.63
2022-10-05T08:04:14.565Z,4.35
2022-10-05T08:06:50.397Z,3.80
2022-10-05T08:09:57.558Z,6.88
2022-10-05T08:12:27.249Z,8.57
2022-10-05T08:14:57.629Z,8.50
2022-10-05T08:17:39.665Z,4.85
2022-10-05T08:20:27.997Z,5.47
2022-10-05T08:23:01.992Z,6.43
2022-10-05T08:25:54.645Z,6.07
2022-10-05T08:28:27.165Z,4.45
2022-10-05T08:31:06.137Z,4.55
2022-10-05T08:33:45.806Z,6.10
2022-10-05T08:36:15.841Z,3.28
2022-10-05T08:38:43.216Z,3.65
2022-10-05T08:41:37.396Z,3.38
2022-10-05T08:44:25.945Z,3.47
2022-10-05T08:47:20.589Z,5.13
2022-10-05T08:50:02.654Z,2.72
2022-10-05T08:52:33.797Z,6.35
2022-10-05T08:55:18.489Z,5.53
2022-10-05T08:58:10.963Z,8.10
2022-10-05T09:01:04.023Z,8.90
2022-10-05T09:03:34.844Z,18.67
2022-10-05T09:06:23.714Z,5.07
2022-10-05T09:09:24.523Z,3.83
2022-10-05T09:12:16.128Z,2.35
2022-10-05T09:15:24.225Z,3.67
2022-10-05T09:18:01.414Z,4.05
2022-10-05T09:20:36.940Z,6.47
2022-10-05T09:23:13.980Z,2.88
2022-10-05T09:26:07.994Z,3.75
2022-10-05T09:29:02.877Z,2.83
2022-10-05T09:32:02.503Z,2.47
2022-10-05T09:34:42.873Z,4.45
2022-10-05T09:37:30.772Z,2.40
2022-10-05T09:40:09.726Z,3.30
2022-10-05T09:42:44.995Z,5.03
2022-10-05T09:45:36.612Z,1.77
2022-10-05T09:48:26.413Z,6.78
2022-10-05T09:51:23.949Z,2.00
2022-10-05T09:54:33.479Z,5.45
2022-10-05T09:57:45.780Z,9.13
2022-10-05T10:00:27.569Z,5.85
2022-10-05T10:03:44.738Z,3.42
2022-10-05T10:06:20.395Z,5.45
2022-10-05T10:09:02.318Z,2.60
2022-10-05T10:12:03.054Z,3.67
2022-10-05T10:15:11.797Z,3.05
2022-10-05T10:17:55.722Z,8.52
2022-10-05T10:20:31.122Z,5.00
2022-10-05T10:23:32.875Z,3.80
2022-10-05T10:26:25.248Z,7.53
2022-10-05T10:31:34.124Z,3.90
2022-10-05T10:34:21.936Z,2.60
2022-10-05T10:36:51.956Z,9.23
2022-10-05T10:39:31.556Z,14.88
2022-10-05T10:42:07.565Z,6.50
2022-10-05T10:44:47.274Z,1.35
2022-10-05T10:47:35.922Z,2.63
2022-10-05T10:50:30.191Z,5.85
2022-10-05T10:53:18.588Z,5.13
2022-10-05T10:56:03.756Z,2.08
2022-10-05T10:59:10.589Z,9.05
2022-10-05T11:02:14.358Z,2.90
2022-10-05T11:04:56.163Z,3.45
2022-10-05T11:07:31.910Z,9.27
2022-10-05T11:10:01.432Z,5.15
2022-10-05T11:12:39.977Z,2.20
2022-10-05T11:15:09.528Z,5.72
2022-10-05T11:17:58.226Z,4.97
2022-10-05T11:21:02.248Z,3.25
2022-10-05T11:24:04.164Z,5.00
2022-10-05T11:27:02.498Z,4.82
2022-10-05T11:30:04.082Z,5.93
2022-10-05T11:32:52.564Z,5.37
2022-10-05T11:35:34.724Z,5.25
2022-10-05T11:40:50.069Z,4.93
2022-10-05T11:43:43.874Z,5.65
2022-10-05T11:46:16.441Z,3.40
2022-10-05T11:49:00.552Z,7.75
2022-10-05T11:51:30.262Z,4.05
2022-10-05T11:54:20.441Z,2.78
2022-10-05T11:57:09.480Z,5.63
2022-10-05T11:59:49.310Z,3.28
2022-10-05T12:02:46.892Z,1.80
2022-10-05T12:05:38.129Z,3.17
2022-10-05T12:08:13.899Z,6.47
2022-10-05T12:11:27.837Z,6.05
2022-10-05T12:14:14.335Z,4.22
2022-10-05T12:17:00.849Z,3.20
2022-10-05T12:19:44.443Z,5.30
2022-10-05T12:22:17.828Z,2.53
2022-10-05T12:25:01.919Z,3.92
2022-10-05T12:27:36.189Z,4.80
2022-10-05T12:30:47.675Z,2.65
2022-10-05T12:33:22.767Z,5.32
2022-10-05T12:36:01.545Z,4.85
2022-10-05T12:38:40.327Z,2.17
2022-10-05T12:41:30.325Z,1.42
2022-10-05T12:44:34.512Z,2.92
2022-10-05T12:47:12.392Z,4.72
2022-10-05T12:49:57.451Z,6.18
2022-10-05T12:53:01.976Z,3.70
2022-10-05T12:55:48.093Z,7.07
2022-10-05T12:58:43.850Z,4.93
2022-10-05T13:01:34.574Z,4.68
2022-10-05T13:04:01.250Z,2.63
2022-10-05T13:06:39.409Z,1.90
2022-10-05T13:09:23.941Z,3.05
2022-10-05T13:11:56.035Z,1.65
2022-10-05T13:14:53.848Z,0.73
2022-10-05T13:17:34.665Z,7.05
2022-10-05T13:20:28.196Z,3.33
2022-10-05T13:23:34.808Z,4.57
2022-10-05T13:26:19.459Z,2.22
2022-10-05T13:29:04.386Z,4.00
2022-10-05T13:31:48.089Z,2.45
2022-10-05T13:34:41.123Z,4.40
2022-10-05T13:37:31.875Z,2.38
2022-10-05T13:40:18.688Z,1.52
2022-10-05T13:42:59.896Z,1.73
2022-10-05T13:46:01.895Z,5.07
2022-10-05T13:49:04.312Z,1.85
2022-10-05T13:54:23.219Z,5.80
2022-10-05T13:56:56.939Z,6.13
2022-10-05T14:00:02.527Z,8.73
2022-10-05T14:02:31.826Z,2.70
2022-10-05T14:05:01.280Z,4.63
2022-10-05T14:07:39.706Z,4.47
2022-10-05T14:10:14.279Z,4.25
2022-10-05T14:12:43.452Z,3.13
2022-10-05T14:15:28.457Z,9.75
2022-10-05T14:17:55.366Z,3.33
2022-10-05T14:20:34.280Z,2.65
2022-10-05T14:23:15.450Z,5.22
2022-10-05T14:25:54.138Z,5.00
2022-10-05T14:28:34.998Z,3.15
2022-10-05T14:31:12.900Z,5.85
2022-10-05T14:33:39.993Z,6.20
2022-10-05T14:36:14.087Z,11.93
2022-10-05T14:38:58.031Z,3.33
2022-10-05T14:41:27.697Z,3.00
2022-10-05T14:44:00.042Z,4.18
2022-10-05T14:46:34.438Z,2.17
2022-10-05T14:49:21.155Z,2.60
2022-10-05T14:51:51.692Z,8.43
2022-10-05T14:54:36.285Z,2.75
2022-10-05T14:57:15.498Z,6.78
2022-10-05T15:00:04.071Z,6.95
2022-10-05T15:02:52.501Z,8.50
2022-10-05T15:05:37.759Z,6.40
2022-10-05T15:08:23.579Z,2.33
2022-10-05T15:11:00.469Z,1.85
2022-10-05T15:13:41.725Z,7.00
2022-10-05T15:16:19.127Z,6.00
2022-10-05T15:18:58.582Z,3.90
2022-10-05T15:22:01.140Z,3.72
2022-10-05T15:27:04.154Z,2.35
2022-10-05T15:29:52.371Z,7.03
2022-10-05T15:32:26.657Z,4.95
2022-10-05T15:35:10.805Z,12.10
2022-10-05T15:37:49.795Z,8.65
2022-10-05T15:40:36.564Z,8.35
2022-10-05T15:43:19.095Z,6.65
2022-10-05T15:45:54.039Z,4.30
2022-10-05T15:48:36.018Z,1.92
2022-10-05T15:51:31.043Z,2.40
2022-10-05T15:54:40.466Z,8.68
2022-10-05T15:57:21.285Z,4.93
2022-10-05T16:00:17.759Z,15.18
2022-10-05T16:03:13.090Z,10.07
2022-10-05T16:06:08.769Z,8.48
2022-10-05T16:08:56.045Z,4.70
2022-10-05T16:11:47.013Z,9.05
2022-10-05T16:14:44.012Z,11.73
2022-10-05T16:17:35.196Z,12.48
2022-10-05T16:20:23.182Z,7.45
2022-10-05T16:23:18.826Z,5.85
2022-10-05T16:25:58.469Z,8.90
2022-10-05T16:28:46.315Z,5.50
2022-10-05T16:31:38.166Z,6.68
2022-10-05T16:34:23.306Z,7.00
2022-10-05T16:37:18.645Z,9.45
2022-10-05T16:39:51.133Z,10.25
2022-10-05T16:42:35.228Z,14.15
2022-10-05T16:45:44.793Z,8.25
2022-10-05T16:48:25.170Z,7.05
2022-10-05T16:50:58.106Z,4.95
2022-10-05T16:53:31.840Z,14.07
2022-10-05T16:56:04.655Z,18.23
2022-10-05T16:58:54.041Z,10.20
2022-10-05T17:01:42.588Z,15.68
2022-10-05T17:04:43.144Z,15.43
2022-10-05T17:07:25.073Z,8.73
2022-10-05T17:10:23.045Z,6.13
2022-10-05T17:13:08.166Z,10.73
2022-10-05T17:15:37.625Z,7.00
2022-10-05T17:18:50.344Z,8.25
2022-10-05T17:21:34.745Z,11.55
2022-10-05T17:24:12.758Z,8.13
2022-10-05T17:26:54.897Z,12.95
2022-10-05T17:29:51.891Z,9.43
2022-10-05T17:32:18.422Z,6.82
2022-10-05T17:35:03.352Z,9.73
2022-10-05T17:37:39.593Z,6.93
2022-10-05T17:40:34.345Z,7.78
2022-10-05T17:43:16.420Z,6.18
2022-10-05T17:45:42.983Z,8.15
2022-10-05T17:48:11.437Z,6.95
2022-10-05T17:51:04.373Z,8.05
2022-10-05T17:53:52.670Z,6.43
2022-10-05T17:56:22.110Z,7.82
2022-10-05T17:58:58.059Z,6.03
2022-10-05T18:01:40.019Z,7.35
2022-10-05T18:04:12.660Z,9.27
2022-10-05T18:06:47.737Z,4.63
2022-10-05T18:09:16.945Z,3.03
2022-10-05T18:11:48.068Z,3.80
2022-10-05T18:14:25.038Z,3.30
2022-10-05T18:17:12.083Z,3.30
2022-10-05T18:19:39.780Z,4.00
2022-10-05T18:22:27.880Z,15.90
2022-10-05T18:25:05.826Z,8.32
2022-10-05T18:27:36.684Z,15.25
2022-10-05T18:30:18.169Z,10.93
2022-10-05T18:33:09.770Z,11.10
2022-10-05T18:35:48.478Z,10.57
2022-10-05T18:38:53.106Z,12.57
2022-10-05T18:41:58.364Z,20.30
2022-10-05T18:44:47.208Z,17.15
2022-10-05T18:47:45.700Z,21.75
2022-10-05T18:50:24.012Z,14.55
2022-10-05T18:52:59.842Z,19.20
2022-10-05T18:55:32.830Z,14.48
2022-10-05T18:58:08.809Z,15.38
2022-10-05T19:01:05.621Z,18.10
2022-10-05T19:03:57.790Z,28.10
2022-10-05T19:06:29.716Z,24.58
2022-10-05T19:09:38.571Z,17.75
2022-10-05T19:12:22.735Z,14.88
2022-10-05T19:14:52.257Z,18.02
2022-10-05T19:17:25.760Z,15.13
2022-10-05T19:20:12.131Z,15.20
2022-10-05T19:23:03.255Z,25.65
2022-10-05T19:25:53.292Z,19.02
2022-10-05T19:28:50.777Z,17.58
2022-10-05T19:31:30.153Z,13.90
2022-10-05T19:34:34.765Z,17.92
2022-10-05T19:37:06.018Z,13.77
2022-10-05T19:39:41.154Z,17.08
2022-10-05T19:42:44.467Z,20.50
2022-10-05T19:45:21.584Z,13.73
2022-10-05T19:48:26.939Z,17.35
2022-10-05T19:51:11.428Z,27.50
2022-10-05T19:53:44.323Z,21.15
2022-10-05T19:56:16.464Z,20.13
2022-10-05T19:58:45.166Z,14.48
2022-10-05T20:01:21.738Z,14.35
2022-10-05T20:03:50.237Z,12.52
2022-10-05T20:06:19.736Z,10.85
2022-10-05T20:08:49.304Z,8.88
2022-10-05T20:11:17.864Z,10.27
2022-10-05T20:14:06.348Z,20.48
2022-10-05T20:16:53.049Z,14.10
2022-10-05T20:19:34.765Z,14.90
2022-10-05T20:22:28.250Z,14.57
2022-10-05T20:25:00.165Z,15.10
2022-10-05T20:27:45.347Z,16.45
2022-10-05T20:30:23.789Z,13.38
2022-10-05T20:32:52.276Z,12.98
2022-10-05T20:35:25.688Z,11.23
2022-10-05T20:37:52.452Z,10.52
2022-10-05T20:40:20.371Z,10.52
2022-10-05T20:42:47.762Z,16.85
2022-10-05T20:45:14.720Z,9.43
2022-10-05T20:47:42.228Z,16.50
2022-10-05T20:50:10.422Z,14.75
2022-10-05T20:52:38.239Z,12.63
2022-10-05T20:55:06.472Z,16.67
2022-10-05T20:57:33.846Z,15.85
2022-10-05T21:00:00.609Z,18.38
2022-10-05T21:02:27.335Z,20.17
2022-10-05T21:04:54.240Z,16.02
2022-10-05T21:07:21.739Z,14.73
2022-10-05T21:09:48.685Z,14.27
2022-10-05T21:12:18.832Z,16.83
2022-10-05T21:14:46.201Z,12.43
2022-10-05T21:17:12.914Z,14.35
2022-10-05T21:19:40.535Z,13.07
2022-10-05T21:22:09.557Z,14.85
2022-10-05T21:24:38.042Z,15.20
2022-10-05T21:27:05.385Z,21.00
2022-10-05T21:29:33.880Z,11.07
2022-10-05T21:32:00.841Z,14.13
2022-10-05T21:34:28.626Z,18.83
2022-10-05T21:36:55.377Z,20.77
2022-10-05T21:39:22.176Z,23.08
2022-10-05T21:41:49.757Z,17.85
2022-10-05T21:44:16.885Z,18.98
2022-10-05T21:46:43.884Z,11.93
2022-10-05T21:49:10.947Z,17.08
2022-10-05T21:51:38.745Z,10.02
2022-10-05T21:54:24.024Z,23.27
2022-10-05T21:56:53.022Z,20.02
2022-10-05T21:59:23.934Z,14.82
2022-10-05T22:01:50.601Z,14.80
2022-10-05T22:04:17.379Z,12.93
2022-10-05T22:06:44.056Z,15.77
2022-10-05T22:09:10.937Z,18.83
2022-10-05T22:11:37.972Z,14.50
2022-10-05T22:14:05.046Z,13.70
2022-10-05T22:16:34.294Z,15.80
2022-10-05T22:19:05.946Z,9.10
2022-10-05T22:21:38.220Z,16.77
2022-10-05T22:24:05.227Z,18.23
2022-10-05T22:26:32.641Z,18.10
2022-10-05T22:29:01.778Z,12.77
2022-10-05T22:31:28.460Z,11.55
2022-10-05T22:33:55.104Z,10.95
2022-10-05T22:36:22.037Z,11.00
2022-10-05T22:38:48.616Z,14.23
2022-10-05T22:41:18.265Z,12.02
2022-10-05T22:43:48.724Z,10.75
2022-10-05T22:46:16.334Z,12.45
2022-10-05T22:48:43.580Z,15.02
2022-10-05T22:51:10.551Z,21.00
2022-10-05T22:53:37.697Z,19.67
2022-10-05T22:56:09.666Z,20.05
2022-10-05T22:58:37.036Z,18.77
2022-10-05T23:01:10.921Z,14.52
2022-10-05T23:03:38.325Z,14.98
2022-10-05T23:06:10.650Z,21.92
2022-10-05T23:11:12.943Z,23.05
2022-10-05T23:13:40.380Z,20.15
2022-10-05T23:16:08.068Z,21.40
2022-10-05T23:18:35.287Z,24.08
2022-10-05T23:21:02.409Z,17.65
2022-10-05T23:23:29.001Z,19.92
2022-10-05T23:26:00.512Z,18.33
2022-10-05T23:28:28.564Z,20.27
2022-10-05T23:31:00.524Z,20.50
2022-10-05T23:33:28.363Z,39.90
2022-10-05T23:36:19.580Z,65.65
2022-10-05T23:38:47.299Z,54.92
2022-10-05T23:41:16.016Z,38.45
2022-10-05T23:43:43.248Z,29.45
2022-10-05T23:46:10.372Z,30.45
2022-10-05T23:48:39.787Z,23.25
2022-10-05T23:51:08.284Z,19.45
2022-10-05T23:53:35.154Z,17.13
2022-10-05T23:56:02.231Z,17.92
2022-10-05T23:58:30.267Z,17.67
